Time;durP1;ratioP1;P1;durP2;ratioP2;P2;SDS_P1;SDS_P2;PMS_P1;PMS_P2;Temp;Humidity;BMP_temperature;BMP_pressure;BME280_temperature;BME280_humidity;BME280_pressure;Samples;Min_cycle;Max_cycle;Signal;HPM_P1;HPM_P2
2022/02/11 00:09:08;;;;;;;;;;;;;;;22.13;47.53;101357.63;5080776;28;4497;-64
2022/02/11 00:11:35;;;;;;;;;;;;;;;22.12;47.45;101352.47;5081481;28;4270;-65
2022/02/11 00:14:02;;;;;;;;;;;;;;;22.11;47.85;101354.63;5066974;28;4099;-65
2022/02/11 00:16:28;;;;;;;;;;;;;;;22.11;47.49;101360.41;5086556;28;4130;-64
2022/02/11 00:18:58;;;;;;;;;;;;;;;22.11;47.69;101354.63;5085685;28;4118;-65
2022/02/11 00:21:24;;;;;;;;;;;;;;;22.10;47.35;101350.25;5084767;28;6382;-64
2022/02/11 00:23:51;;;;;;;;;;;;;;;22.12;47.64;101350.34;5083560;28;4061;-64
2022/02/11 00:26:17;;;;;;;;;;;;;;;22.12;47.40;101356.09;5083225;28;4310;-64
2022/02/11 00:29:48;;;;;;;;;;;;;;;22.13;47.44;101356.88;5085413;28;4070;-64
2022/02/11 00:31:56;;;;;;;;;;;;;;;22.09;47.50;101350.91;5085310;28;4240;-65
2022/02/11 00:34:31;;;;;;;;;;;;;;;22.12;47.43;101346.72;5083902;28;4481;-65
2022/02/11 00:37:11;;;;;;;;;;;;;;;22.11;47.66;101356.78;5089351;28;5516;-64
2022/02/11 01:04:00;;;;;;;;;;;;;;;22.10;47.32;101344.47;5088878;28;4091;-64
2022/02/11 01:06:27;;;;;;;;;;;;;;;22.11;47.67;101345.97;5083802;28;4173;-65
2022/02/11 01:08:54;;;;;;;;;;;;;;;22.10;47.35;101346.63;5086668;28;4161;-64
2022/02/11 01:11:27;;;;;;;;;;;;;;;22.09;47.32;101340.13;5087778;28;5285;-64
2022/02/11 01:13:54;;;;;;;;;;;;;;;22.09;47.50;101340.13;5072916;28;4178;-64
2022/02/11 01:16:27;;;;;;;;;;;;;;;22.08;47.29;101338.63;5086047;28;5497;-64
2022/02/11 01:19:05;;;;;;;;;;;;;;;22.08;47.28;101338.63;5087792;28;4078;-65
2022/02/11 01:21:40;;;;;;;;;;;;;;;22.07;47.33;101334.25;5083865;28;4240;-64
2022/02/11 01:24:36;;;;;;;;;;;;;;;22.05;47.34;101339.91;5086358;28;4122;-64
2022/02/11 01:30:10;;;;;;;;;;;;;;;22.06;47.40;101341.41;5088008;28;4269;-64
2022/02/11 01:35:39;;;;;;;;;;;;;;;22.06;47.16;101335.66;5086375;28;4179;-65
2022/02/11 01:38:23;;;;;;;;;;;;;;;22.07;47.34;101331.34;5086632;28;4297;-65
2022/02/11 01:41:49;;;;;;;;;;;;;;;22.07;47.36;101325.59;5075864;28;4234;-65
2022/02/11 01:44:06;;;;;;;;;;;;;;;22.07;47.46;101331.34;5086443;28;4215;-65
2022/02/11 01:49:37;;;;;;;;;;;;;;;22.07;47.22;101325.59;5088441;28;4215;-64
2022/02/11 01:54:53;;;;;;;;;;;;;;;22.05;47.10;101319.72;5083420;28;4392;-64
2022/02/11 01:58:10;;;;;;;;;;;;;;;22.05;47.26;101305.31;5081420;28;4363;-64
2022/02/11 02:00:45;;;;;;;;;;;;;;;22.04;47.16;101309.59;5086135;28;5229;-64
2022/02/11 02:06:27;;;;;;;;;;;;;;;22.03;47.21;101305.22;5085017;28;4044;-64
2022/02/11 02:11:58;;;;;;;;;;;;;;;22.04;47.40;101292.28;5085936;28;4149;-64
2022/02/11 02:22:46;;;;;;;;;;;;;;;22.05;47.11;101290.16;5086138;28;5215;-64
2022/02/11 02:25:22;;;;;;;;;;;;;;;22.04;47.35;101280.03;5083132;28;4154;-64
2022/02/11 02:28:11;;;;;;;;;;;;;;;22.03;47.17;101290.78;5083089;28;4033;-64
2022/02/11 02:33:56;;;;;;;;;;;;;;;22.02;47.20;101277.03;5061169;28;4183;-64
2022/02/11 02:39:20;;;;;;;;;;;;;;;22.00;47.15;101274.81;5064017;28;5653;-64
2022/02/11 02:58:16;;;;;;;;;;;;;;;22.03;47.13;101261.22;5086866;28;4180;-65
2022/02/11 03:01:32;;;;;;;;;;;;;;;22.02;47.12;101265.50;5064064;28;3964;-64
2022/02/11 03:15:32;;;;;;;;;;;;;;;21.98;47.36;101271.81;5087359;28;4151;-65
2022/02/11 03:51:15;;;;;;;;;;;;;;;21.98;47.00;101277.59;5085341;28;4473;-65
2022/02/11 03:54:09;;;;;;;;;;;;;;;21.98;47.17;101271.81;5085656;28;4217;-64
2022/02/11 04:08:06;;;;;;;;;;;;;;;21.99;46.86;101270.44;5086572;28;4113;-64
2022/02/11 04:27:07;;;;;;;;;;;;;;;22.03;46.96;101272.75;5078179;28;6135;-64
2022/02/11 04:56:35;;;;;;;;;;;;;;;22.02;46.75;101280.66;5077299;28;5235;-64
2022/02/11 05:01:46;;;;;;;;;;;;;;;22.02;46.97;101280.66;5072670;28;4078;-64
2022/02/11 05:04:12;;;;;;;;;;;;;;;22.00;47.17;101289.22;5080002;28;4264;-64
2022/02/11 05:06:39;;;;;;;;;;;;;;;22.02;46.88;101295.09;5079657;28;4688;-64
2022/02/11 05:09:05;;;;;;;;;;;;;;;22.01;47.11;101299.34;5089672;28;4201;-64
2022/02/11 05:11:31;;;;;;;;;;;;;;;22.01;46.88;101287.81;5087550;28;4118;-64
2022/02/11 05:13:58;;;;;;;;;;;;;;;22.00;47.10;101285.59;5088789;28;6385;-64
2022/02/11 05:16:24;;;;;;;;;;;;;;;22.00;46.99;101283.44;5089067;28;5141;-65
2022/02/11 05:18:51;;;;;;;;;;;;;;;22.02;46.82;101286.44;5088985;28;3954;-64
2022/02/11 05:21:17;;;;;;;;;;;;;;;22.00;46.93;101274.81;5087378;28;4506;-65
2022/02/11 05:23:43;;;;;;;;;;;;;;;21.99;46.93;101281.97;5087165;28;4139;-65
2022/02/11 05:26:10;;;;;;;;;;;;;;;21.99;47.22;101273.31;5087604;28;4289;-66
2022/02/11 05:28:36;;;;;;;;;;;;;;;22.00;46.86;101286.34;5084420;28;4445;-65
2022/02/11 05:31:02;;;;;;;;;;;;;;;22.02;46.91;101282.81;5087120;28;5460;-64
2022/02/11 05:33:29;;;;;;;;;;;;;;;22.00;46.87;101283.44;5087785;28;4246;-65
2022/02/11 05:35:56;;;;;;;;;;;;;;;22.00;47.07;101283.44;5087695;28;4217;-65
2022/02/11 05:38:22;;;;;;;;;;;;;;;22.03;46.99;101290.06;5086919;28;4086;-65
2022/02/11 05:40:48;;;;;;;;;;;;;;;22.02;46.74;101285.69;5086050;28;4363;-65
2022/02/11 05:43:15;;;;;;;;;;;;;;;22.04;46.92;101291.56;5085037;28;4193;-65
2022/02/11 05:45:41;;;;;;;;;;;;;;;22.02;47.06;101291.47;5084638;28;3939;-65
2022/02/11 05:48:07;;;;;;;;;;;;;;;22.03;46.96;101290.78;5087452;28;4143;-64
2022/02/11 05:50:34;;;;;;;;;;;;;;;22.02;46.70;101295.09;5087911;28;4239;-65
2022/02/11 05:53:02;;;;;;;;;;;;;;;22.02;47.09;101300.84;5088930;28;4118;-65
2022/02/11 05:55:28;;;;;;;;;;;;;;;22.02;46.83;101295.09;5084604;28;4254;-64
2022/02/11 05:57:55;;;;;;;;;;;;;;;22.01;46.90;101296.47;5086487;28;4090;-64
2022/02/11 06:00:21;;;;;;;;;;;;;;;22.03;46.70;101296.56;5085062;28;4396;-65
2022/02/11 06:02:47;;;;;;;;;;;;;;;22.02;46.67;101303.72;5084058;28;4227;-65
2022/02/11 06:05:16;;;;;;;;;;;;;;;21.98;47.35;101306.41;5084559;28;4159;-67
2022/02/11 06:07:43;;;;;;;;;;;;;;;21.91;47.65;101301.75;5086540;28;4038;-65
2022/02/11 06:10:09;;;;;;;;;;;;;;;21.79;47.92;101304.09;5086474;28;5397;-74
2022/02/11 06:12:36;;;;;;;;;;;;;;;21.70;48.25;101306.56;5084411;28;4248;-72
2022/02/11 06:15:02;;;;;;;;;;;;;;;21.69;47.85;101305.09;5086440;28;4253;-66
2022/02/11 06:17:28;;;;;;;;;;;;;;;21.66;47.67;101312.13;5084279;28;4179;-69
2022/02/11 06:19:57;;;;;;;;;;;;;;;21.77;48.00;101315.50;5087976;28;4391;-69
2022/02/11 06:22:23;;;;;;;;;;;;;;;21.79;48.14;101310.59;5086835;28;5285;-68
2022/02/11 06:24:50;;;;;;;;;;;;;;;21.79;47.88;101318.50;5081681;28;4368;-70
2022/02/11 06:27:16;;;;;;;;;;;;;;;21.73;48.35;101325.44;5083571;28;5464;-69
2022/02/11 06:29:42;;;;;;;;;;;;;;;21.82;47.74;101317.19;5084970;28;4467;-66
2022/02/11 06:32:09;;;;;;;;;;;;;;;21.81;47.87;101333.00;5072970;28;5237;-66
2022/02/11 06:34:35;;;;;;;;;;;;;;;21.79;48.32;101321.38;5074985;28;4084;-66
2022/02/11 06:37:01;;;;;;;;;;;;;;;21.79;47.97;101315.63;5073441;28;4140;-64
2022/02/11 06:39:28;;;;;;;;;;;;;;;21.73;47.68;101318.94;5080497;28;4520;-65
2022/02/11 06:41:54;;;;;;;;;;;;;;;21.32;44.69;101325.56;5075954;28;4301;-65
2022/02/11 06:44:20;;;;;;;;;;;;;;;21.47;44.69;101335.69;5084671;28;5310;-65
2022/02/11 06:46:48;;;;;;;;;;;;;;;21.59;44.88;101342.06;5082935;28;4127;-65
2022/02/11 06:49:14;;;;;;;;;;;;;;;21.67;45.41;101330.16;5080919;28;5262;-65
2022/02/11 06:51:40;;;;;;;;;;;;;;;21.57;46.14;101338.31;5081060;28;5433;-65
2022/02/11 06:54:07;;;;;;;;;;;;;;;21.53;46.69;101333.88;5085489;28;4181;-66
2022/02/11 06:56:33;;;;;;;;;;;;;;;21.53;47.04;101342.50;5081475;28;4339;-65
2022/02/11 06:58:59;;;;;;;;;;;;;;;21.52;47.03;101337.38;5082078;28;4110;-65
2022/02/11 07:01:26;;;;;;;;;;;;;;;21.57;46.93;101341.94;5083548;28;5302;-65
2022/02/11 07:03:52;;;;;;;;;;;;;;;21.38;45.45;101348.19;5056627;28;4344;-64
2022/02/11 07:06:18;;;;;;;;;;;;;;;21.43;45.39;101353.53;5057377;28;4201;-63
2022/02/11 07:08:45;;;;;;;;;;;;;;;21.64;45.65;101361.03;5083226;28;4211;-69
2022/02/11 07:11:11;;;;;;;;;;;;;;;21.79;45.50;101373.28;5083691;28;4178;-66
2022/02/11 07:13:37;;;;;;;;;;;;;;;21.82;45.91;101369.81;5076930;28;4200;-66
2022/02/11 07:16:04;;;;;;;;;;;;;;;21.89;46.14;101376.63;5083603;28;4068;-68
2022/02/11 07:18:30;;;;;;;;;;;;;;;21.94;46.15;101369.66;5078469;28;4128;-69
2022/02/11 07:20:57;;;;;;;;;;;;;;;21.97;46.08;101374.16;5077391;28;4326;-69
2022/02/11 07:23:24;;;;;;;;;;;;;;;21.94;46.12;101363.91;5077565;28;5706;-69
2022/02/11 07:25:50;;;;;;;;;;;;;;;22.01;46.16;101368.56;5079108;28;4237;-64
2022/02/11 07:28:18;;;;;;;;;;;;;;;22.02;45.91;101372.94;5081625;28;4319;-63
2022/02/11 07:30:48;;;;;;;;;;;;;;;22.03;45.86;101377.31;5078066;28;4189;-61
2022/02/11 07:33:14;;;;;;;;;;;;;;;22.03;45.90;101371.53;5076154;28;5573;-62
2022/02/11 07:35:41;;;;;;;;;;;;;;;22.04;46.04;101383.84;5085166;28;4207;-62
2022/02/11 07:38:07;;;;;;;;;;;;;;;22.03;45.96;101383.06;5083065;28;5249;-63
2022/02/11 07:40:33;;;;;;;;;;;;;;;22.05;45.96;101385.31;5083491;28;4538;-62
2022/02/11 07:43:00;;;;;;;;;;;;;;;22.05;46.06;101391.81;5076177;28;4072;-62
2022/02/11 07:45:27;;;;;;;;;;;;;;;22.07;46.05;101399.84;5079311;28;4670;-62
2022/02/11 07:47:54;;;;;;;;;;;;;;;22.07;46.09;101399.84;5078289;28;4033;-65
2022/02/11 07:50:20;;;;;;;;;;;;;;;22.09;46.04;101397.78;5078494;28;3992;-65
2022/02/11 07:52:47;;;;;;;;;;;;;;;22.09;46.04;101402.81;5075729;28;4202;-65
2022/02/11 07:55:13;;;;;;;;;;;;;;;22.09;46.12;101415.09;5083463;28;4144;-65
2022/02/11 07:57:39;;;;;;;;;;;;;;;22.07;46.31;101417.88;5081626;28;5347;-65
2022/02/11 08:00:06;;;;;;;;;;;;;;;22.10;46.36;101418.72;5089159;28;5179;-65
2022/02/11 08:02:39;;;;;;;;;;;;;;;22.08;46.22;101413.63;5084698;28;4485;-65
2022/02/11 08:05:06;;;;;;;;;;;;;;;22.11;46.20;101423.13;5089425;28;4205;-64
2022/02/11 08:07:32;;;;;;;;;;;;;;;22.11;46.06;101412.31;5084495;28;4294;-63
2022/02/11 08:09:58;;;;;;;;;;;;;;;22.11;46.25;101415.19;5089569;28;4196;-63
2022/02/11 08:12:25;;;;;;;;;;;;;;;22.12;46.17;101418.81;5081879;28;4140;-63
2022/02/11 08:14:51;;;;;;;;;;;;;;;22.13;46.08;101426.09;5086535;28;4078;-63
2022/02/11 08:17:22;;;;;;;;;;;;;;;22.13;46.26;101421.06;5082567;28;4214;-63
2022/02/11 08:20:08;;;;;;;;;;;;;;;22.13;46.27;101426.84;5056033;28;5363;-61
2022/02/11 08:22:34;;;;;;;;;;;;;;;21.61;40.09;101436.53;5066085;28;4254;-65
2022/02/11 08:25:00;;;;;;;;;;;;;;;21.17;40.95;101430.69;5082966;28;4271;-68
2022/02/11 08:27:29;;;;;;;;;;;;;;;21.41;41.40;101436.22;5062999;28;5340;-67
2022/02/11 08:29:55;;;;;;;;;;;;;;;21.53;42.45;101433.97;5088341;28;4542;-67
2022/02/11 08:32:22;;;;;;;;;;;;;;;21.59;42.89;101442.91;5079104;28;5374;-73
2022/02/11 08:34:49;;;;;;;;;;;;;;;21.56;44.27;101444.22;5083210;28;4205;-65
2022/02/11 08:37:16;;;;;;;;;;;;;;;21.60;44.56;101444.44;5082731;28;4193;-70
2022/02/11 08:39:42;;;;;;;;;;;;;;;21.70;44.58;101442.03;5086971;28;4221;-68
2022/02/11 08:42:09;;;;;;;;;;;;;;;21.71;45.16;101445.66;5080692;28;4220;-69
2022/02/11 08:44:35;;;;;;;;;;;;;;;21.71;45.16;101455.06;5085369;28;5305;-69
2022/02/11 08:47:02;;;;;;;;;;;;;;;21.73;44.75;101455.16;5081656;28;4232;-66
2022/02/11 08:49:29;;;;;;;;;;;;;;;21.82;45.30;101458.47;5080525;28;4151;-75
2022/02/11 08:51:55;;;;;;;;;;;;;;;21.83;44.81;101457.06;5080560;28;5234;-74
2022/02/11 08:54:21;;;;;;;;;;;;;;;21.81;45.11;101457.72;5084513;28;4216;-75
2022/02/11 08:56:48;;;;;;;;;;;;;;;21.79;44.84;101469.16;5082358;28;5506;-74
2022/02/11 08:59:15;;;;;;;;;;;;;;;21.73;44.55;101454.41;5079232;28;5251;-76
2022/02/11 09:01:41;;;;;;;;;;;;;;;21.71;44.82;101480.25;5078404;28;4215;-73
2022/02/11 09:04:08;;;;;;;;;;;;;;;21.49;43.88;101463.31;5080321;28;4161;-73
2022/02/11 09:06:34;;;;;;;;;;;;;;;21.59;43.08;101474.63;5085533;28;5501;-74
2022/02/11 09:09:00;;;;;;;;;;;;;;;21.68;43.49;101479.41;5086996;28;4210;-73
2022/02/11 09:11:27;;;;;;;;;;;;;;;21.72;44.36;101476.00;5087845;28;4124;-74
2022/02/11 09:13:58;;;;;;;;;;;;;;;21.73;44.91;101475.34;5082392;28;5293;-75
2022/02/11 09:16:24;;;;;;;;;;;;;;;21.74;45.09;101485.50;5085901;28;6339;-72
2022/02/11 09:18:51;;;;;;;;;;;;;;;21.74;45.33;101479.72;5084939;28;4224;-72
2022/02/11 09:21:17;;;;;;;;;;;;;;;21.76;45.95;101484.81;5082808;28;4270;-72
2022/02/11 09:23:43;;;;;;;;;;;;;;;21.77;45.72;101500.75;5081066;28;5296;-72
2022/02/11 09:26:15;;;;;;;;;;;;;;;21.78;45.79;101484.94;5086993;28;4140;-71
2022/02/11 09:28:41;;;;;;;;;;;;;;;21.81;45.57;101489.44;5064276;28;5249;-73
2022/02/11 09:31:08;;;;;;;;;;;;;;;21.83;45.53;101497.41;5086582;28;4245;-74
2022/02/11 09:33:34;;;;;;;;;;;;;;;21.84;45.95;101493.16;5082320;28;4193;-73
2022/02/11 09:36:01;;;;;;;;;;;;;;;21.84;46.64;101493.16;5084234;28;4218;-73
2022/02/11 09:38:27;;;;;;;;;;;;;;;21.84;46.22;101504.69;5085194;28;5515;-70
2022/02/11 09:40:53;;;;;;;;;;;;;;;21.75;46.41;101498.50;5083586;28;4133;-70
2022/02/11 09:43:20;;;;;;;;;;;;;;;21.86;46.79;101504.78;5082293;28;4273;-70
2022/02/11 09:45:46;;;;;;;;;;;;;;;21.96;46.48;101500.25;5083062;28;4057;-68
2022/02/11 09:48:12;;;;;;;;;;;;;;;22.23;46.79;101509.53;5078546;28;5436;-71
2022/02/11 09:50:37;;;;;;;;;;;;;;;22.38;46.46;101514.59;5087204;28;4338;-74
2022/02/11 09:53:10;;;;;;;;;;;;;;;22.46;46.20;101509.19;5080573;28;4340;-73
2022/02/11 09:55:40;;;;;;;;;;;;;;;22.57;46.04;101514.06;5082821;28;4209;-74
2022/02/11 09:58:07;;;;;;;;;;;;;;;22.62;46.27;101509.22;5085781;28;4116;-75
2022/02/11 10:00:35;;;;;;;;;;;;;;;22.65;46.42;101516.59;5083042;28;4460;-73
2022/02/11 10:03:02;;;;;;;;;;;;;;;22.68;46.16;101517.44;5079872;28;4502;-75
2022/02/11 10:05:28;;;;;;;;;;;;;;;22.71;45.82;101516.88;5085772;28;4914;-73
2022/02/11 10:07:55;;;;;;;;;;;;;;;22.74;45.78;101526.38;5087050;28;3993;-76
2022/02/11 10:10:39;;;;;;;;;;;;;;;22.72;45.93;101529.94;5083212;28;5525;-73
2022/02/11 10:13:06;;;;;;;;;;;;;;;22.77;46.09;101536.66;5074889;28;4228;-76
2022/02/11 10:15:34;;;;;;;;;;;;;;;22.78;45.94;101538.13;5084879;28;4454;-79
2022/02/11 10:18:01;;;;;;;;;;;;;;;22.81;45.99;101533.94;5083926;28;5388;-72
2022/02/11 10:20:29;;;;;;;;;;;;;;;22.90;45.80;101535.06;5084728;28;4130;-69
2022/02/11 10:23:12;;;;;;;;;;;;;;;22.93;45.96;101537.41;5081521;28;4099;-69
2022/02/11 10:25:54;;;;;;;;;;;;;;;22.94;45.67;101538.16;5061587;28;4184;-68
2022/02/11 10:28:20;;;;;;;;;;;;;;;22.93;45.83;101528.75;5082709;28;4195;-73
2022/02/11 10:31:00;;;;;;;;;;;;;;;22.93;45.98;101531.63;5085684;28;4412;-74
2022/02/11 10:33:27;;;;;;;;;;;;;;;23.01;45.79;101537.06;5075576;28;4152;-72
2022/02/11 10:35:55;;;;;;;;;;;;;;;23.03;45.77;101533.53;5080693;28;4054;-72
2022/02/11 10:38:21;;;;;;;;;;;;;;;23.04;45.86;101540.78;5081308;28;4127;-68
2022/02/11 10:40:47;;;;;;;;;;;;;;;23.02;45.74;101546.47;5083544;28;4138;-71
2022/02/11 10:43:26;;;;;;;;;;;;;;;23.00;45.78;101553.66;5078763;28;5418;-72
2022/02/11 10:45:54;;;;;;;;;;;;;;;23.10;45.88;101549.72;5084097;28;4159;-74
2022/02/11 10:48:23;;;;;;;;;;;;;;;23.10;45.88;101555.50;5081513;28;4152;-76
2022/02/11 10:50:54;;;;;;;;;;;;;;;23.09;45.68;101554.78;5085233;28;4161;-68
2022/02/11 10:53:21;;;;;;;;;;;;;;;23.07;45.55;101551.03;5082969;28;4322;-79
2022/02/11 10:55:51;;;;;;;;;;;;;;;23.10;45.76;101555.50;5087083;28;4210;-73
2022/02/11 10:58:17;;;;;;;;;;;;;;;23.09;46.00;101548.22;5082712;28;4231;-75
2022/02/11 11:00:44;;;;;;;;;;;;;;;23.11;45.84;101545.44;5086862;28;4208;-73
2022/02/11 11:03:10;;;;;;;;;;;;;;;23.07;46.01;101545.28;5078028;28;5104;-76
2022/02/11 11:05:41;;;;;;;;;;;;;;;23.07;45.78;101543.13;5085067;28;4212;-72
2022/02/11 11:08:07;;;;;;;;;;;;;;;23.07;45.94;101548.91;5083171;28;5294;-76
2022/02/11 11:10:34;;;;;;;;;;;;;;;23.13;46.28;101540.50;5083871;28;4230;-70
2022/02/11 11:13:00;;;;;;;;;;;;;;;23.19;46.22;101545.81;5080783;28;4068;-70
2022/02/11 11:15:31;;;;;;;;;;;;;;;23.20;46.34;101547.28;5081854;28;4340;-78
2022/02/11 11:17:57;;;;;;;;;;;;;;;23.20;46.42;101550.19;5062931;28;3937;-80
2022/02/11 11:20:25;;;;;;;;;;;;;;;23.20;46.32;101541.50;5083714;28;4383;-73
2022/02/11 11:22:57;;;;;;;;;;;;;;;23.23;45.91;101545.25;5082179;28;4130;-73
2022/02/11 11:25:23;;;;;;;;;;;;;;;23.26;45.87;101541.81;5063272;28;4130;-70
2022/02/11 11:27:50;;;;;;;;;;;;;;;23.29;45.67;101539.75;5083737;28;4145;-71
2022/02/11 11:30:20;;;;;;;;;;;;;;;23.34;45.83;101538.53;5084369;28;4287;-70
2022/02/11 11:33:04;;;;;;;;;;;;;;;23.32;45.65;101547.09;5080306;28;4039;-73
2022/02/11 11:35:31;;;;;;;;;;;;;;;23.29;46.00;101551.31;5087665;28;4147;-73
2022/02/11 11:38:12;;;;;;;;;;;;;;;23.32;45.84;101553.66;5080339;28;4328;-75
2022/02/11 11:40:39;;;;;;;;;;;;;;;23.35;45.99;101563.88;5078522;28;4158;-70
2022/02/11 11:43:14;;;;;;;;;;;;;;;23.34;46.16;101556.63;5083252;28;4393;-72
2022/02/11 11:45:43;;;;;;;;;;;;;;;23.33;46.25;101560.91;5086373;28;4051;-71
2022/02/11 11:48:11;;;;;;;;;;;;;;;23.34;46.30;101559.53;5081766;28;4360;-66
2022/02/11 11:50:39;;;;;;;;;;;;;;;23.39;45.66;101564.06;5082050;28;4164;-63
2022/02/11 11:53:21;;;;;;;;;;;;;;;23.51;45.62;101572.53;5082267;28;4174;-64
2022/02/11 11:55:47;;;;;;;;;;;;;;;23.56;45.64;101576.34;5085943;28;4237;-70
2022/02/11 11:58:34;;;;;;;;;;;;;;;23.47;45.67;101572.34;5075303;28;4179;-67
2022/02/11 12:01:01;;;;;;;;;;;;;;;23.42;45.63;101574.31;5082896;28;4129;-68
2022/02/11 12:03:27;;;;;;;;;;;;;;;23.44;45.59;101578.72;5081910;28;4122;-68
2022/02/11 12:05:55;;;;;;;;;;;;;;;23.42;45.75;101588.78;5070604;28;4067;-70
2022/02/11 12:08:21;;;;;;;;;;;;;;;23.42;45.80;101591.66;5083750;28;4163;-67
2022/02/11 12:10:48;;;;;;;;;;;;;;;23.44;46.02;101590.28;5085049;28;4213;-66
2022/02/11 12:13:15;;;;;;;;;;;;;;;23.42;45.91;101594.56;5083622;28;4558;-66
2022/02/11 12:15:42;;;;;;;;;;;;;;;23.46;45.88;101613.50;5062319;28;4249;-68
2022/02/11 12:18:08;;;;;;;;;;;;;;;23.48;45.80;101604.91;5082003;28;4112;-67
2022/02/11 12:20:38;;;;;;;;;;;;;;;23.49;45.83;101612.19;5083024;28;4021;-66
2022/02/11 12:28:38;;;;;;;;;;;;;;;23.42;45.78;101623.47;5086547;28;4162;-72
2022/02/11 12:31:06;;;;;;;;;;;;;;;23.46;46.28;101620.03;5083203;28;4196;-70
2022/02/11 12:33:33;;;;;;;;;;;;;;;23.50;46.06;101619.44;5084597;28;4380;-70
2022/02/11 12:36:09;;;;;;;;;;;;;;;23.53;46.11;101623.94;5085004;28;4260;-71
2022/02/11 12:38:36;;;;;;;;;;;;;;;23.53;46.06;101618.88;5084824;28;4493;-71
2022/02/11 12:41:03;;;;;;;;;;;;;;;23.51;46.10;101609.38;5086386;28;5255;-72
2022/02/11 12:43:29;;;;;;;;;;;;;;;23.52;46.10;101610.88;5080134;28;4136;-73
2022/02/11 12:45:56;;;;;;;;;;;;;;;23.54;46.11;101628.31;5085153;28;4262;-75
2022/02/11 12:48:32;;;;;;;;;;;;;;;23.53;46.10;101629.72;5064578;28;4220;-71
2022/02/11 12:50:59;;;;;;;;;;;;;;;23.55;46.25;101629.81;5085580;28;4096;-70
2022/02/11 12:53:27;;;;;;;;;;;;;;;23.55;46.12;101644.28;5080769;28;4181;-70
2022/02/11 12:55:55;;;;;;;;;;;;;;;23.54;46.23;101655.06;5085457;28;4036;-67
2022/02/11 12:58:21;;;;;;;;;;;;;;;23.57;45.98;101648.00;5084494;28;4176;-72
2022/02/11 13:00:48;;;;;;;;;;;;;;;23.56;46.07;101645.75;5087101;28;4043;-75
2022/02/11 13:03:15;;;;;;;;;;;;;;;23.58;46.14;101648.72;5081276;28;4098;-73
2022/02/11 13:05:46;;;;;;;;;;;;;;;23.57;45.77;101659.56;5088627;28;4231;-77
2022/02/11 13:08:23;;;;;;;;;;;;;;;23.52;45.78;101668.69;5085220;28;5341;-63
2022/02/11 13:10:57;;;;;;;;;;;;;;;23.50;45.96;101665.69;5085221;28;4434;-65
2022/02/11 13:13:23;;;;;;;;;;;;;;;23.48;46.17;101677.94;5079873;28;4223;-64
2022/02/11 13:15:50;;;;;;;;;;;;;;;23.46;45.95;101682.88;5087600;28;4241;-65
2022/02/11 13:18:18;;;;;;;;;;;;;;;23.45;45.96;101687.16;5065753;28;4236;-71
2022/02/11 13:20:45;;;;;;;;;;;;;;;23.50;46.19;101685.94;5082210;28;4221;-65
2022/02/11 13:23:14;;;;;;;;;;;;;;;23.53;46.41;101693.31;5083302;28;4151;-67
2022/02/11 13:25:43;;;;;;;;;;;;;;;23.52;46.05;101691.81;5083553;28;4219;-69
2022/02/11 13:28:10;;;;;;;;;;;;;;;23.53;46.30;101696.22;5084295;28;4243;-67
2022/02/11 13:30:45;;;;;;;;;;;;;;;23.55;46.11;101702.81;5080724;28;4489;-66
2022/02/11 13:33:22;;;;;;;;;;;;;;;23.55;46.33;101716.53;5075747;28;4186;-68
2022/02/11 13:35:49;;;;;;;;;;;;;;;23.55;46.33;101714.38;5081659;28;4076;-66
2022/02/11 13:38:24;;;;;;;;;;;;;;;23.51;45.94;101713.47;5076897;28;4959;-68
2022/02/11 13:40:51;;;;;;;;;;;;;;;23.46;45.84;101723.34;5083032;28;4012;-68
2022/02/11 13:43:18;;;;;;;;;;;;;;;23.46;46.13;101721.19;5082181;28;4037;-66
2022/02/11 13:45:51;;;;;;;;;;;;;;;23.47;45.85;101719.78;5081160;28;4260;-66
2022/02/11 13:48:18;;;;;;;;;;;;;;;23.53;45.94;101728.00;5081530;28;4202;-64
2022/02/11 13:51:04;;;;;;;;;;;;;;;23.54;46.26;101727.34;5079084;28;4066;-68
2022/02/11 13:53:31;;;;;;;;;;;;;;;23.56;46.40;101738.25;5078868;28;4279;-67
2022/02/11 13:55:57;;;;;;;;;;;;;;;23.50;46.08;101740.84;5081052;28;5340;-66
2022/02/11 13:58:24;;;;;;;;;;;;;;;23.51;46.13;101743.09;5083322;28;4052;-65
2022/02/11 14:00:50;;;;;;;;;;;;;;;23.53;46.07;101748.97;5084602;28;5293;-65
2022/02/11 14:03:26;;;;;;;;;;;;;;;23.55;46.07;101751.22;5056952;28;4351;-65
2022/02/11 14:05:54;;;;;;;;;;;;;;;23.53;46.04;101762.69;5083770;28;4113;-63
2022/02/11 14:08:21;;;;;;;;;;;;;;;23.53;46.02;101762.69;5080692;28;4177;-63
2022/02/11 14:10:48;;;;;;;;;;;;;;;23.37;45.11;101769.19;5077804;28;3996;-63
2022/02/11 14:13:14;;;;;;;;;;;;;;;22.14;41.39;101767.97;5070411;28;4002;-78
2022/02/11 14:15:41;;;;;;;;;;;;;;;22.31;41.39;101755.16;5079195;28;5618;-72
2022/02/11 14:18:07;;;;;;;;;;;;;;;22.57;42.90;101761.56;5083631;28;4247;-66
2022/02/11 14:20:37;;;;;;;;;;;;;;;22.30;44.58;101773.88;5081485;28;4084;-64
2022/02/11 14:23:10;;;;;;;;;;;;;;;22.32;43.18;101779.75;5076066;28;4192;-65
2022/02/11 14:25:36;;;;;;;;;;;;;;;22.08;41.05;101773.38;5060514;28;4156;-66
2022/02/11 14:28:03;;;;;;;;;;;;;;;22.31;41.08;101781.91;5072398;28;4109;-63
2022/02/11 14:30:29;;;;;;;;;;;;;;;22.36;42.34;101779.97;5082202;28;4445;-63
2022/02/11 14:32:57;;;;;;;;;;;;;;;22.26;43.63;101794.59;5079741;28;4181;-63
2022/02/11 14:35:23;;;;;;;;;;;;;;;22.21;44.23;101783.47;5081098;28;5554;-65
2022/02/11 14:37:49;;;;;;;;;;;;;;;22.26;43.22;101790.97;5081904;28;4217;-64
2022/02/11 14:40:16;;;;;;;;;;;;;;;22.25;44.41;101798.13;5076380;28;4469;-66
2022/02/11 14:42:43;;;;;;;;;;;;;;;22.26;44.53;101802.50;5079811;28;4281;-67
2022/02/11 14:45:10;;;;;;;;;;;;;;;22.17;44.11;101798.41;5082538;28;4164;-67
2022/02/11 14:47:36;;;;;;;;;;;;;;;22.22;44.03;101796.50;5083762;28;4458;-67
2022/02/11 14:50:05;;;;;;;;;;;;;;;22.21;44.18;101807.31;5082342;28;4191;-68
2022/02/11 14:52:32;;;;;;;;;;;;;;;22.29;44.42;101813.53;5074058;28;4169;-65
2022/02/11 14:54:58;;;;;;;;;;;;;;;22.31;44.44;101816.53;5084349;28;4188;-65
2022/02/11 14:57:25;;;;;;;;;;;;;;;22.50;44.50;101821.13;5082104;28;4340;-74
2022/02/11 14:59:51;;;;;;;;;;;;;;;22.77;43.92;101814.59;5084619;28;4200;-70
2022/02/11 15:02:18;;;;;;;;;;;;;;;22.89;44.26;101814.47;5077959;28;4168;-70
2022/02/11 15:04:46;;;;;;;;;;;;;;;22.96;44.08;101827.06;5080662;28;4201;-67
2022/02/11 15:07:12;;;;;;;;;;;;;;;22.97;44.61;101826.41;5071987;28;4238;-70
2022/02/11 15:09:38;;;;;;;;;;;;;;;23.01;44.09;101846.13;5081535;28;4227;-69
2022/02/11 15:12:10;;;;;;;;;;;;;;;23.04;44.03;101841.19;5080247;28;4156;-68
2022/02/11 15:14:37;;;;;;;;;;;;;;;23.07;44.17;101857.28;5082276;28;5328;-66
2022/02/11 15:17:03;;;;;;;;;;;;;;;23.07;44.24;101858.00;5082104;28;4234;-66
2022/02/11 15:19:30;;;;;;;;;;;;;;;23.10;44.56;101864.63;5080928;28;4207;-67
2022/02/11 15:21:56;;;;;;;;;;;;;;;23.11;44.70;101869.78;5080960;28;4390;-67
2022/02/11 15:24:24;;;;;;;;;;;;;;;23.11;44.69;101874.78;5082817;28;4258;-70
2022/02/11 15:26:51;;;;;;;;;;;;;;;23.11;44.56;101883.47;5085122;28;4532;-63
2022/02/11 15:29:17;;;;;;;;;;;;;;;23.15;44.69;101886.56;5077508;28;4491;-66
2022/02/11 15:31:44;;;;;;;;;;;;;;;23.16;44.80;101899.63;5077280;28;4619;-66
2022/02/11 15:34:12;;;;;;;;;;;;;;;23.18;44.65;101896.81;5085188;28;4271;-64
2022/02/11 15:36:39;;;;;;;;;;;;;;;23.18;44.62;101902.59;5083729;28;4093;-66
2022/02/11 15:39:05;;;;;;;;;;;;;;;23.20;44.87;101920.03;5060894;28;4227;-65
2022/02/11 15:41:31;;;;;;;;;;;;;;;23.25;44.88;101918.88;5081070;28;4240;-71
2022/02/11 15:43:59;;;;;;;;;;;;;;;23.34;44.70;101926.56;5081705;28;4272;-72
2022/02/11 15:46:27;;;;;;;;;;;;;;;23.40;44.49;101935.53;5083657;28;4212;-73
2022/02/11 15:48:53;;;;;;;;;;;;;;;23.42;44.46;101938.53;5080637;28;5501;-66
2022/02/11 15:51:20;;;;;;;;;;;;;;;23.42;44.58;101941.41;5082669;28;5228;-63
2022/02/11 15:53:46;;;;;;;;;;;;;;;23.49;44.55;101944.63;5079996;28;4103;-66
2022/02/11 15:56:13;;;;;;;;;;;;;;;23.46;44.64;101951.72;5081729;28;4277;-65
2022/02/11 15:58:39;;;;;;;;;;;;;;;23.45;44.58;101953.09;5084331;28;4279;-68
2022/02/11 16:01:05;;;;;;;;;;;;;;;23.42;44.99;101967.44;5076525;28;4351;-68
2022/02/11 16:03:32;;;;;;;;;;;;;;;23.40;44.73;101976.00;5081299;28;5278;-67
2022/02/11 16:06:00;;;;;;;;;;;;;;;23.43;44.97;101979.75;5085638;28;4220;-70